sensor_id;sensor_type;location;lat;lon;timestamp;temperature;humidity
64062;DHT22;50308;47.438;-1.528;2023-08-06T12:53:59;21.10;65.90
64062;DHT22;50308;47.438;-1.528;2023-08-06T12:56:25;21.30;65.20
64062;DHT22;50308;47.438;-1.528;2023-08-06T12:58:50;21.40;66.30
64062;DHT22;50308;47.438;-1.528;2023-08-06T13:01:16;21.30;66.10
64062;DHT22;50308;47.438;-1.528;2023-08-06T13:03:41;21.60;64.90
64062;DHT22;50308;47.438;-1.528;2023-08-06T13:06:07;21.60;62.80
64062;DHT22;50308;47.438;-1.528;2023-08-06T13:08:35;21.30;64.40
64062;DHT22;50308;47.438;-1.528;2023-08-06T13:11:01;21.40;64.30
64062;DHT22;50308;47.438;-1.528;2023-08-06T13:13:27;21.30;64.50
64062;DHT22;50308;47.438;-1.528;2023-08-06T13:15:52;21.20;66.10
64062;DHT22;50308;47.438;-1.528;2023-08-06T13:18:18;21.30;65.30
64062;DHT22;50308;47.438;-1.528;2023-08-06T13:20:44;21.50;64.20
64062;DHT22;50308;47.438;-1.528;2023-08-06T13:23:09;21.60;65.30
64062;DHT22;50308;47.438;-1.528;2023-08-06T13:25:35;21.60;65.90
64062;DHT22;50308;47.438;-1.528;2023-08-06T13:28:03;21.70;64.50
64062;DHT22;50308;47.438;-1.528;2023-08-06T13:30:29;21.70;61.70
64062;DHT22;50308;47.438;-1.528;2023-08-06T13:32:55;21.50;64.00
64062;DHT22;50308;47.438;-1.528;2023-08-06T13:35:22;21.40;64.10
64062;DHT22;50308;47.438;-1.528;2023-08-06T13:37:48;21.40;66.10
64062;DHT22;50308;47.438;-1.528;2023-08-06T13:40:14;21.50;67.00
64062;DHT22;50308;47.438;-1.528;2023-08-06T13:42:39;21.60;62.30
64062;DHT22;50308;47.438;-1.528;2023-08-06T13:45:06;21.50;62.00
64062;DHT22;50308;47.438;-1.528;2023-08-06T13:47:32;21.50;61.50
64062;DHT22;50308;47.438;-1.528;2023-08-06T13:49:58;21.40;61.50
64062;DHT22;50308;47.438;-1.528;2023-08-06T13:52:26;21.30;63.70
64062;DHT22;50308;47.438;-1.528;2023-08-06T13:54:52;21.20;62.20
64062;DHT22;50308;47.438;-1.528;2023-08-06T13:57:18;21.10;63.30
64062;DHT22;50308;47.438;-1.528;2023-08-06T13:59:43;21.20;63.40
64062;DHT22;50308;47.438;-1.528;2023-08-06T14:02:10;21.10;64.50
64062;DHT22;50308;47.438;-1.528;2023-08-06T14:04:36;21.10;65.40
64062;DHT22;50308;47.438;-1.528;2023-08-06T14:07:03;21.10;65.20
64062;DHT22;50308;47.438;-1.528;2023-08-06T14:09:29;21.00;65.60
64062;DHT22;50308;47.438;-1.528;2023-08-06T14:11:55;21.00;65.90
64062;DHT22;50308;47.438;-1.528;2023-08-06T14:14:20;20.70;67.50
64062;DHT22;50308;47.438;-1.528;2023-08-06T14:16:54;20.70;67.90
64062;DHT22;50308;47.438;-1.528;2023-08-06T14:19:20;20.70;66.10
64062;DHT22;50308;47.438;-1.528;2023-08-06T14:21:46;20.70;65.50
64062;DHT22;50308;47.438;-1.528;2023-08-06T14:24:12;20.70;67.50
64062;DHT22;50308;47.438;-1.528;2023-08-06T14:26:38;20.50;68.40
64062;DHT22;50308;47.438;-1.528;2023-08-06T14:29:04;20.50;68.20
64062;DHT22;50308;47.438;-1.528;2023-08-06T14:31:30;20.40;69.50
64062;DHT22;50308;47.438;-1.528;2023-08-06T14:33:55;20.40;70.20
64062;DHT22;50308;47.438;-1.528;2023-08-06T14:36:21;20.70;68.40
64062;DHT22;50308;47.438;-1.528;2023-08-06T14:38:47;20.70;69.20
64062;DHT22;50308;47.438;-1.528;2023-08-06T14:41:13;20.70;68.90
64062;DHT22;50308;47.438;-1.528;2023-08-06T14:43:38;20.70;68.70
64062;DHT22;50308;47.438;-1.528;2023-08-06T14:46:04;20.70;69.00
64062;DHT22;50308;47.438;-1.528;2023-08-06T14:48:30;20.70;67.90
64062;DHT22;50308;47.438;-1.528;2023-08-06T14:50:56;20.70;68.10
64062;DHT22;50308;47.438;-1.528;2023-08-06T14:53:22;20.60;68.10
64062;DHT22;50308;47.438;-1.528;2023-08-06T14:55:48;20.60;69.00
64062;DHT22;50308;47.438;-1.528;2023-08-06T14:58:13;20.70;69.10
64062;DHT22;50308;47.438;-1.528;2023-08-06T15:00:40;20.70;68.90
64062;DHT22;50308;47.438;-1.528;2023-08-06T15:03:05;20.60;69.70
64062;DHT22;50308;47.438;-1.528;2023-08-06T15:05:31;20.60;69.30
64062;DHT22;50308;47.438;-1.528;2023-08-06T15:07:57;20.70;69.60
64062;DHT22;50308;47.438;-1.528;2023-08-06T15:10:22;20.60;69.80
64062;DHT22;50308;47.438;-1.528;2023-08-06T15:12:48;20.60;69.00
64062;DHT22;50308;47.438;-1.528;2023-08-06T15:15:14;20.60;67.20
64062;DHT22;50308;47.438;-1.528;2023-08-06T15:17:40;20.60;68.70
64062;DHT22;50308;47.438;-1.528;2023-08-06T15:20:06;20.60;68.50
64062;DHT22;50308;47.438;-1.528;2023-08-06T15:22:32;20.50;71.10
64062;DHT22;50308;47.438;-1.528;2023-08-06T15:25:00;20.50;70.10
64062;DHT22;50308;47.438;-1.528;2023-08-06T15:27:25;20.50;70.60
64062;DHT22;50308;47.438;-1.528;2023-08-06T15:29:51;20.50;71.20
64062;DHT22;50308;47.438;-1.528;2023-08-06T15:32:17;20.60;72.00
64062;DHT22;50308;47.438;-1.528;2023-08-06T15:34:43;20.50;71.70
64062;DHT22;50308;47.438;-1.528;2023-08-06T15:37:09;20.50;72.10
64062;DHT22;50308;47.438;-1.528;2023-08-06T15:39:34;20.70;72.90
64062;DHT22;50308;47.438;-1.528;2023-08-06T15:42:00;21.40;70.30
64062;DHT22;50308;47.438;-1.528;2023-08-06T15:44:26;21.70;71.30
64062;DHT22;50308;47.438;-1.528;2023-08-06T15:46:51;22.10;67.90
64062;DHT22;50308;47.438;-1.528;2023-08-06T15:49:17;22.10;67.10
64062;DHT22;50308;47.438;-1.528;2023-08-06T15:51:43;21.90;67.00
64062;DHT22;50308;47.438;-1.528;2023-08-06T15:54:09;22.10;68.70
64062;DHT22;50308;47.438;-1.528;2023-08-06T15:56:34;22.40;66.90
64062;DHT22;50308;47.438;-1.528;2023-08-06T15:59:21;22.70;66.50
64062;DHT22;50308;47.438;-1.528;2023-08-06T16:01:46;22.80;66.80
64062;DHT22;50308;47.438;-1.528;2023-08-06T16:04:12;22.30;67.00
64062;DHT22;50308;47.438;-1.528;2023-08-06T16:06:38;21.60;69.50
64062;DHT22;50308;47.438;-1.528;2023-08-06T16:09:03;21.30;70.80
64062;DHT22;50308;47.438;-1.528;2023-08-06T16:11:29;21.10;71.60
64062;DHT22;50308;47.438;-1.528;2023-08-06T16:13:54;20.90;72.00
64062;DHT22;50308;47.438;-1.528;2023-08-06T16:16:20;20.80;72.40
64062;DHT22;50308;47.438;-1.528;2023-08-06T16:18:46;20.80;72.50
64062;DHT22;50308;47.438;-1.528;2023-08-06T16:21:11;20.70;72.70
64062;DHT22;50308;47.438;-1.528;2023-08-06T16:23:38;20.60;72.90
64062;DHT22;50308;47.438;-1.528;2023-08-06T16:26:03;20.50;73.30
64062;DHT22;50308;47.438;-1.528;2023-08-06T16:28:29;20.40;73.70
64062;DHT22;50308;47.438;-1.528;2023-08-06T16:30:55;20.40;73.80
64062;DHT22;50308;47.438;-1.528;2023-08-06T16:33:20;20.40;74.00
64062;DHT22;50308;47.438;-1.528;2023-08-06T16:35:46;20.30;74.40
64062;DHT22;50308;47.438;-1.528;2023-08-06T16:38:13;20.40;74.30
64062;DHT22;50308;47.438;-1.528;2023-08-06T16:40:40;20.40;74.50
64062;DHT22;50308;47.438;-1.528;2023-08-06T16:43:06;20.30;74.50
64062;DHT22;50308;47.438;-1.528;2023-08-06T16:45:32;20.30;74.70
64062;DHT22;50308;47.438;-1.528;2023-08-06T16:48:03;20.30;75.10
64062;DHT22;50308;47.438;-1.528;2023-08-06T16:50:29;20.30;74.60
64062;DHT22;50308;47.438;-1.528;2023-08-06T16:52:55;20.30;75.00
64062;DHT22;50308;47.438;-1.528;2023-08-06T16:55:22;20.30;75.10
64062;DHT22;50308;47.438;-1.528;2023-08-06T16:57:48;20.20;75.40
64062;DHT22;50308;47.438;-1.528;2023-08-06T17:00:14;20.20;75.70
64062;DHT22;50308;47.438;-1.528;2023-08-06T17:02:39;20.20;75.50
64062;DHT22;50308;47.438;-1.528;2023-08-06T17:05:05;20.20;75.50
64062;DHT22;50308;47.438;-1.528;2023-08-06T17:07:31;20.10;75.70
64062;DHT22;50308;47.438;-1.528;2023-08-06T17:09:57;20.20;75.70
64062;DHT22;50308;47.438;-1.528;2023-08-06T17:12:23;20.20;75.70
64062;DHT22;50308;47.438;-1.528;2023-08-06T17:14:49;20.20;75.70
64062;DHT22;50308;47.438;-1.528;2023-08-06T17:17:14;20.20;76.80
64062;DHT22;50308;47.438;-1.528;2023-08-06T17:19:42;20.10;76.10
64062;DHT22;50308;47.438;-1.528;2023-08-06T17:22:09;20.20;75.80
64062;DHT22;50308;47.438;-1.528;2023-08-06T17:24:34;20.10;76.00
64062;DHT22;50308;47.438;-1.528;2023-08-06T17:27:01;20.10;76.20
64062;DHT22;50308;47.438;-1.528;2023-08-06T17:29:27;20.10;76.20
64062;DHT22;50308;47.438;-1.528;2023-08-06T17:31:53;20.10;76.10
64062;DHT22;50308;47.438;-1.528;2023-08-06T17:34:18;20.10;76.20
64062;DHT22;50308;47.438;-1.528;2023-08-06T17:36:44;20.10;75.90
64062;DHT22;50308;47.438;-1.528;2023-08-06T17:39:10;20.10;76.10
64062;DHT22;50308;47.438;-1.528;2023-08-06T17:41:35;20.10;76.00
64062;DHT22;50308;47.438;-1.528;2023-08-06T17:44:01;20.10;76.10
64062;DHT22;50308;47.438;-1.528;2023-08-06T17:46:28;20.10;76.20
64062;DHT22;50308;47.438;-1.528;2023-08-06T17:48:53;20.10;76.10
64062;DHT22;50308;47.438;-1.528;2023-08-06T17:51:21;20.10;76.20
64062;DHT22;50308;47.438;-1.528;2023-08-06T17:53:46;20.10;76.20
64062;DHT22;50308;47.438;-1.528;2023-08-06T17:56:12;20.10;76.20
64062;DHT22;50308;47.438;-1.528;2023-08-06T17:58:38;20.10;76.20
64062;DHT22;50308;47.438;-1.528;2023-08-06T18:01:03;20.10;75.90
64062;DHT22;50308;47.438;-1.528;2023-08-06T18:03:29;20.20;76.10
64062;DHT22;50308;47.438;-1.528;2023-08-06T18:05:58;20.10;76.10
64062;DHT22;50308;47.438;-1.528;2023-08-06T18:08:24;20.10;76.10
64062;DHT22;50308;47.438;-1.528;2023-08-06T18:10:51;20.20;76.30
64062;DHT22;50308;47.438;-1.528;2023-08-06T18:13:17;20.10;76.40
64062;DHT22;50308;47.438;-1.528;2023-08-06T18:15:42;20.10;76.30
64062;DHT22;50308;47.438;-1.528;2023-08-06T18:18:08;20.10;76.50
64062;DHT22;50308;47.438;-1.528;2023-08-06T18:20:36;20.10;76.40
64062;DHT22;50308;47.438;-1.528;2023-08-06T18:23:02;20.10;76.80
64062;DHT22;50308;47.438;-1.528;2023-08-06T18:25:30;20.10;76.70
64062;DHT22;50308;47.438;-1.528;2023-08-06T18:27:56;20.10;76.40
64062;DHT22;50308;47.438;-1.528;2023-08-06T18:30:21;20.10;76.60
64062;DHT22;50308;47.438;-1.528;2023-08-06T18:32:47;20.10;76.40
64062;DHT22;50308;47.438;-1.528;2023-08-06T18:35:13;20.20;76.30
64062;DHT22;50308;47.438;-1.528;2023-08-06T18:37:39;20.10;76.10
64062;DHT22;50308;47.438;-1.528;2023-08-06T18:40:08;20.10;76.30
64062;DHT22;50308;47.438;-1.528;2023-08-06T18:42:34;20.10;76.60
64062;DHT22;50308;47.438;-1.528;2023-08-06T18:45:00;20.10;76.40
64062;DHT22;50308;47.438;-1.528;2023-08-06T18:47:27;20.10;76.90
64062;DHT22;50308;47.438;-1.528;2023-08-06T18:49:53;20.10;77.00
64062;DHT22;50308;47.438;-1.528;2023-08-06T18:52:19;20.10;77.20
64062;DHT22;50308;47.438;-1.528;2023-08-06T18:54:45;20.00;77.20
64062;DHT22;50308;47.438;-1.528;2023-08-06T18:57:11;20.00;77.10
64062;DHT22;50308;47.438;-1.528;2023-08-06T18:59:36;20.00;77.50
64062;DHT22;50308;47.438;-1.528;2023-08-06T19:02:02;20.00;77.40
64062;DHT22;50308;47.438;-1.528;2023-08-06T19:04:28;20.00;77.60
64062;DHT22;50308;47.438;-1.528;2023-08-06T19:06:54;20.00;77.70
64062;DHT22;50308;47.438;-1.528;2023-08-06T19:09:20;20.00;78.10
64062;DHT22;50308;47.438;-1.528;2023-08-06T19:11:46;20.00;78.20
64062;DHT22;50308;47.438;-1.528;2023-08-06T19:14:12;20.00;78.20
64062;DHT22;50308;47.438;-1.528;2023-08-06T19:16:38;20.00;78.40
64062;DHT22;50308;47.438;-1.528;2023-08-06T19:19:12;20.00;78.70
64062;DHT22;50308;47.438;-1.528;2023-08-06T19:21:37;20.00;78.70
64062;DHT22;50308;47.438;-1.528;2023-08-06T19:24:03;20.00;78.60
64062;DHT22;50308;47.438;-1.528;2023-08-06T19:26:29;20.00;78.50
64062;DHT22;50308;47.438;-1.528;2023-08-06T19:28:55;19.90;78.50
64062;DHT22;50308;47.438;-1.528;2023-08-06T19:31:21;20.00;78.40
64062;DHT22;50308;47.438;-1.528;2023-08-06T19:33:47;20.00;78.60
64062;DHT22;50308;47.438;-1.528;2023-08-06T19:36:12;19.90;78.80
64062;DHT22;50308;47.438;-1.528;2023-08-06T19:38:39;19.90;79.00
64062;DHT22;50308;47.438;-1.528;2023-08-06T19:41:06;19.90;78.90
64062;DHT22;50308;47.438;-1.528;2023-08-06T19:43:34;19.90;79.00
64062;DHT22;50308;47.438;-1.528;2023-08-06T19:46:00;19.80;79.10
64062;DHT22;50308;47.438;-1.528;2023-08-06T19:48:25;19.90;79.30
64062;DHT22;50308;47.438;-1.528;2023-08-06T19:50:55;19.80;79.60
64062;DHT22;50308;47.438;-1.528;2023-08-06T19:53:33;19.80;79.40
64062;DHT22;50308;47.438;-1.528;2023-08-06T19:56:00;19.80;79.30
64062;DHT22;50308;47.438;-1.528;2023-08-06T19:58:30;19.80;79.80
64062;DHT22;50308;47.438;-1.528;2023-08-06T20:00:57;19.70;80.10
64062;DHT22;50308;47.438;-1.528;2023-08-06T20:03:26;19.70;80.20
64062;DHT22;50308;47.438;-1.528;2023-08-06T20:05:52;19.70;80.20
64062;DHT22;50308;47.438;-1.528;2023-08-06T20:08:18;19.60;80.40
64062;DHT22;50308;47.438;-1.528;2023-08-06T20:10:45;19.60;80.60
64062;DHT22;50308;47.438;-1.528;2023-08-06T20:13:12;19.60;80.90
64062;DHT22;50308;47.438;-1.528;2023-08-06T20:15:38;19.60;80.80
64062;DHT22;50308;47.438;-1.528;2023-08-06T20:18:03;19.50;80.80
64062;DHT22;50308;47.438;-1.528;2023-08-06T20:20:29;19.50;80.80
64062;DHT22;50308;47.438;-1.528;2023-08-06T20:22:55;19.50;80.90
64062;DHT22;50308;47.438;-1.528;2023-08-06T20:25:20;19.50;81.20
64062;DHT22;50308;47.438;-1.528;2023-08-06T20:27:46;19.50;81.30
64062;DHT22;50308;47.438;-1.528;2023-08-06T20:30:12;19.40;81.20
64062;DHT22;50308;47.438;-1.528;2023-08-06T20:32:38;19.40;81.40
64062;DHT22;50308;47.438;-1.528;2023-08-06T20:35:04;19.40;81.60
64062;DHT22;50308;47.438;-1.528;2023-08-06T20:37:30;19.40;81.50
64062;DHT22;50308;47.438;-1.528;2023-08-06T20:39:55;19.40;81.70
64062;DHT22;50308;47.438;-1.528;2023-08-06T20:42:21;19.40;81.70
64062;DHT22;50308;47.438;-1.528;2023-08-06T20:44:47;19.40;81.90
64062;DHT22;50308;47.438;-1.528;2023-08-06T20:47:12;19.40;81.80
64062;DHT22;50308;47.438;-1.528;2023-08-06T20:49:39;19.40;82.00
64062;DHT22;50308;47.438;-1.528;2023-08-06T20:52:06;19.40;81.70
64062;DHT22;50308;47.438;-1.528;2023-08-06T20:54:32;19.40;81.30
64062;DHT22;50308;47.438;-1.528;2023-08-06T20:56:57;19.40;80.60
64062;DHT22;50308;47.438;-1.528;2023-08-06T20:59:23;19.40;80.90
64062;DHT22;50308;47.438;-1.528;2023-08-06T21:01:48;19.40;80.80
64062;DHT22;50308;47.438;-1.528;2023-08-06T21:04:14;19.40;80.60
64062;DHT22;50308;47.438;-1.528;2023-08-06T21:06:40;19.40;79.60
64062;DHT22;50308;47.438;-1.528;2023-08-06T21:09:06;19.40;79.90
64062;DHT22;50308;47.438;-1.528;2023-08-06T21:11:33;19.40;79.40
64062;DHT22;50308;47.438;-1.528;2023-08-06T21:13:58;19.40;79.10
64062;DHT22;50308;47.438;-1.528;2023-08-06T21:16:24;19.40;78.70
64062;DHT22;50308;47.438;-1.528;2023-08-06T21:18:49;19.40;78.60
64062;DHT22;50308;47.438;-1.528;2023-08-06T21:21:15;19.40;78.00
64062;DHT22;50308;47.438;-1.528;2023-08-06T21:23:41;19.40;78.30
64062;DHT22;50308;47.438;-1.528;2023-08-06T21:26:07;19.30;78.30
64062;DHT22;50308;47.438;-1.528;2023-08-06T21:28:34;19.40;78.10
64062;DHT22;50308;47.438;-1.528;2023-08-06T21:31:03;19.30;78.20
64062;DHT22;50308;47.438;-1.528;2023-08-06T21:33:30;19.30;78.40
64062;DHT22;50308;47.438;-1.528;2023-08-06T21:35:58;19.30;78.10
64062;DHT22;50308;47.438;-1.528;2023-08-06T21:38:27;19.30;77.90
64062;DHT22;50308;47.438;-1.528;2023-08-06T21:40:54;19.30;78.00
64062;DHT22;50308;47.438;-1.528;2023-08-06T21:43:20;19.20;78.40
64062;DHT22;50308;47.438;-1.528;2023-08-06T21:45:46;19.20;78.70
64062;DHT22;50308;47.438;-1.528;2023-08-06T21:48:11;19.20;79.00
64062;DHT22;50308;47.438;-1.528;2023-08-06T21:50:37;19.10;78.90
64062;DHT22;50308;47.438;-1.528;2023-08-06T21:53:02;19.20;78.90
64062;DHT22;50308;47.438;-1.528;2023-08-06T21:55:31;19.20;77.90
64062;DHT22;50308;47.438;-1.528;2023-08-06T21:57:58;19.20;78.20
64062;DHT22;50308;47.438;-1.528;2023-08-06T22:00:23;19.10;78.40
64062;DHT22;50308;47.438;-1.528;2023-08-06T22:02:49;19.10;77.70
64062;DHT22;50308;47.438;-1.528;2023-08-06T22:05:15;19.10;77.70
64062;DHT22;50308;47.438;-1.528;2023-08-06T22:07:40;19.10;77.50
64062;DHT22;50308;47.438;-1.528;2023-08-06T22:10:06;19.00;76.80
64062;DHT22;50308;47.438;-1.528;2023-08-06T22:12:32;19.00;77.80
64062;DHT22;50308;47.438;-1.528;2023-08-06T22:14:58;19.00;77.90
64062;DHT22;50308;47.438;-1.528;2023-08-06T22:17:23;18.90;78.50
64062;DHT22;50308;47.438;-1.528;2023-08-06T22:19:49;18.80;78.70
64062;DHT22;50308;47.438;-1.528;2023-08-06T22:22:15;18.80;78.50
64062;DHT22;50308;47.438;-1.528;2023-08-06T22:24:41;18.80;78.80
64062;DHT22;50308;47.438;-1.528;2023-08-06T22:27:07;18.70;78.90
64062;DHT22;50308;47.438;-1.528;2023-08-06T22:29:33;18.70;79.00
64062;DHT22;50308;47.438;-1.528;2023-08-06T22:31:58;18.60;79.10
64062;DHT22;50308;47.438;-1.528;2023-08-06T22:34:26;18.60;79.20
64062;DHT22;50308;47.438;-1.528;2023-08-06T22:36:51;18.60;79.40
64062;DHT22;50308;47.438;-1.528;2023-08-06T22:39:17;18.50;79.30
64062;DHT22;50308;47.438;-1.528;2023-08-06T22:41:42;18.50;79.20
64062;DHT22;50308;47.438;-1.528;2023-08-06T22:44:08;18.50;79.30
64062;DHT22;50308;47.438;-1.528;2023-08-06T22:46:34;18.40;79.50
64062;DHT22;50308;47.438;-1.528;2023-08-06T22:49:00;18.40;79.50
64062;DHT22;50308;47.438;-1.528;2023-08-06T22:51:25;18.40;79.70
64062;DHT22;50308;47.438;-1.528;2023-08-06T22:53:51;18.30;79.50
64062;DHT22;50308;47.438;-1.528;2023-08-06T22:56:16;18.30;79.50
64062;DHT22;50308;47.438;-1.528;2023-08-06T22:58:42;18.30;79.70
64062;DHT22;50308;47.438;-1.528;2023-08-06T23:01:08;18.30;79.70
64062;DHT22;50308;47.438;-1.528;2023-08-06T23:03:34;18.30;79.60
64062;DHT22;50308;47.438;-1.528;2023-08-06T23:06:00;18.20;79.80
64062;DHT22;50308;47.438;-1.528;2023-08-06T23:08:25;18.20;79.80
64062;DHT22;50308;47.438;-1.528;2023-08-06T23:10:51;18.20;79.90
64062;DHT22;50308;47.438;-1.528;2023-08-06T23:13:16;18.20;79.90
64062;DHT22;50308;47.438;-1.528;2023-08-06T23:15:42;18.10;79.90
64062;DHT22;50308;47.438;-1.528;2023-08-06T23:18:08;18.00;80.00
64062;DHT22;50308;47.438;-1.528;2023-08-06T23:20:33;18.10;80.00
64062;DHT22;50308;47.438;-1.528;2023-08-06T23:22:59;18.10;80.00
64062;DHT22;50308;47.438;-1.528;2023-08-06T23:25:25;18.00;79.90
64062;DHT22;50308;47.438;-1.528;2023-08-06T23:27:50;18.00;80.00
64062;DHT22;50308;47.438;-1.528;2023-08-06T23:30:16;17.90;80.00
64062;DHT22;50308;47.438;-1.528;2023-08-06T23:32:42;17.90;79.90
64062;DHT22;50308;47.438;-1.528;2023-08-06T23:35:08;17.90;80.10
64062;DHT22;50308;47.438;-1.528;2023-08-06T23:37:34;17.90;79.90
64062;DHT22;50308;47.438;-1.528;2023-08-06T23:39:59;17.90;80.00
64062;DHT22;50308;47.438;-1.528;2023-08-06T23:42:25;17.90;79.90
64062;DHT22;50308;47.438;-1.528;2023-08-06T23:44:52;17.80;79.90
64062;DHT22;50308;47.438;-1.528;2023-08-06T23:47:18;17.70;80.00
64062;DHT22;50308;47.438;-1.528;2023-08-06T23:49:44;17.70;80.30
64062;DHT22;50308;47.438;-1.528;2023-08-06T23:52:09;17.70;80.20
64062;DHT22;50308;47.438;-1.528;2023-08-06T23:54:35;17.70;80.30
64062;DHT22;50308;47.438;-1.528;2023-08-06T23:57:02;17.70;80.50
64062;DHT22;50308;47.438;-1.528;2023-08-06T23:59:28;17.70;80.20
